createdAt,value
2023-04-03T03:40:35.313Z,99.78
2023-04-03T03:43:39.192Z,99.78
2023-04-03T03:46:41.843Z,100.00
2023-04-03T03:49:44.857Z,100.00
2023-04-03T03:52:47.568Z,100.00
2023-04-03T03:55:50.423Z,100.00
2023-04-03T03:58:53.640Z,100.00
2023-04-03T04:01:57.366Z,100.00
2023-04-03T04:05:00.284Z,100.00
2023-04-03T04:08:03.039Z,100.00
2023-04-03T04:11:05.973Z,100.00
2023-04-03T04:14:08.937Z,100.00
2023-04-03T04:17:11.783Z,100.00
2023-04-03T04:20:14.512Z,100.00
2023-04-03T04:23:19.461Z,100.00
2023-04-03T04:26:22.623Z,100.00
2023-04-03T04:29:25.627Z,100.00
2023-04-03T04:32:29.081Z,100.00
2023-04-03T04:35:32.069Z,100.00
2023-04-03T04:38:35.091Z,100.00
2023-04-03T04:41:38.060Z,100.00
2023-04-03T04:44:41.168Z,100.00
2023-04-03T04:47:44.216Z,100.00
2023-04-03T04:50:47.028Z,100.00
2023-04-03T04:53:50.066Z,100.00
2023-04-03T04:56:53.100Z,100.00
2023-04-03T04:59:56.309Z,100.00
2023-04-03T05:02:59.373Z,100.00
2023-04-03T05:06:02.496Z,100.00
2023-04-03T05:09:06.526Z,100.00
2023-04-03T05:12:09.820Z,100.00
2023-04-03T05:15:12.841Z,100.00
2023-04-03T05:18:16.030Z,100.00
2023-04-03T05:21:24.217Z,100.00
2023-04-03T05:24:27.681Z,100.00
2023-04-03T05:27:31.089Z,100.00
2023-04-03T05:30:34.204Z,100.00
2023-04-03T05:33:38.379Z,100.00
2023-04-03T05:36:41.618Z,100.00
2023-04-03T05:39:44.683Z,100.00
2023-04-03T05:42:47.988Z,100.00
2023-04-03T05:45:52.021Z,100.00
2023-04-03T05:48:55.459Z,100.00
2023-04-03T05:51:58.327Z,100.00
2023-04-03T05:55:01.654Z,100.00
2023-04-03T05:58:05.787Z,100.00
2023-04-03T06:01:11.662Z,100.00
2023-04-03T06:04:15.155Z,100.00
2023-04-03T06:07:23.665Z,100.00
2023-04-03T06:10:27.289Z,100.00
2023-04-03T06:13:30.494Z,100.00
2023-04-03T06:16:33.630Z,100.00
2023-04-03T06:19:37.161Z,100.00
2023-04-03T06:22:41.225Z,100.00
2023-04-03T06:25:43.948Z,100.00
2023-04-03T06:28:46.881Z,100.00
2023-04-03T06:31:50.293Z,100.00
2023-04-03T06:34:54.423Z,99.25
2023-04-03T06:37:57.651Z,100.00
2023-04-03T06:41:01.133Z,97.86
2023-04-03T06:47:07.205Z,93.60
2023-04-03T06:50:12.724Z,94.14
2023-04-03T06:53:15.903Z,92.72
2023-04-03T06:56:19.356Z,92.55
2023-04-03T06:59:22.271Z,86.50
2023-04-03T07:02:24.945Z,90.04
2023-04-03T07:05:27.939Z,85.50
2023-04-03T07:08:31.324Z,85.38
2023-04-03T07:11:34.367Z,80.58
2023-04-03T07:14:37.125Z,81.21
2023-04-03T07:17:40.074Z,77.18
2023-04-03T07:20:42.752Z,73.34
2023-04-03T07:23:46.500Z,65.38
2023-04-03T07:26:51.960Z,65.27
2023-04-03T07:29:55.602Z,62.52
2023-04-03T07:32:59.184Z,57.05
2023-04-03T07:36:02.917Z,56.35
2023-04-03T07:39:05.774Z,58.54
2023-04-03T07:42:09.097Z,60.58
2023-04-03T07:45:11.945Z,55.10
2023-04-03T07:48:14.904Z,52.71
2023-04-03T07:51:17.609Z,53.03
2023-04-03T07:54:20.445Z,54.85
2023-04-03T07:57:23.126Z,54.93
2023-04-03T08:00:26.168Z,52.98
2023-04-03T08:03:29.749Z,52.61
2023-04-03T08:06:45.926Z,52.21
2023-04-03T08:09:50.229Z,49.24
2023-04-03T08:12:52.881Z,50.53
2023-04-03T08:15:58.140Z,50.55
2023-04-03T08:19:00.929Z,48.09
2023-04-03T08:22:04.410Z,50.55
2023-04-03T08:25:07.740Z,49.94
2023-04-03T08:28:12.350Z,48.03
2023-04-03T08:31:19.602Z,50.90
2023-04-03T08:34:22.676Z,49.29
2023-04-03T08:37:25.264Z,47.20
2023-04-03T08:40:28.198Z,45.60
2023-04-03T08:43:54.382Z,46.60
2023-04-03T08:47:12.314Z,44.35
2023-04-03T08:50:19.526Z,43.45
2023-04-03T08:53:29.553Z,43.45
2023-04-03T08:56:34.749Z,42.35
2023-04-03T08:59:40.663Z,42.79
2023-04-03T09:02:56.149Z,42.25
2023-04-03T09:06:07.518Z,43.29
2023-04-03T09:09:28.864Z,44.02
2023-04-03T09:12:43.266Z,45.35
2023-04-03T09:15:46.089Z,44.42
2023-04-03T09:18:54.006Z,45.75
2023-04-03T09:21:58.677Z,43.71
2023-04-03T09:25:14.960Z,47.04
2023-04-03T09:28:17.559Z,42.72
2023-04-03T09:31:25.407Z,43.99
2023-04-03T09:34:37.849Z,44.17
2023-04-03T09:37:43.850Z,45.32
2023-04-03T09:40:52.548Z,45.58
2023-04-03T09:43:56.920Z,43.78
2023-04-03T09:47:00.507Z,42.70
2023-04-03T09:50:18.404Z,42.67
2023-04-03T09:53:31.825Z,43.78
2023-04-03T09:56:35.758Z,41.00
2023-04-03T10:00:11.954Z,44.17
2023-04-03T10:03:36.424Z,42.96
2023-04-03T10:06:51.755Z,44.89
2023-04-03T10:10:24.970Z,45.05
2023-04-03T10:13:27.619Z,45.31
2023-04-03T10:16:40.287Z,45.18
2023-04-03T10:19:48.060Z,44.02
2023-04-03T10:23:12.978Z,45.12
2023-04-03T10:26:22.943Z,44.54
2023-04-03T10:29:28.479Z,43.09
2023-04-03T10:33:09.459Z,43.36
2023-04-03T10:36:36.281Z,45.45
2023-04-03T10:40:03.385Z,44.34
2023-04-03T10:43:45.348Z,44.67
2023-04-03T10:46:58.604Z,44.12
2023-04-03T10:50:18.694Z,46.06
2023-04-03T10:53:40.164Z,46.20
2023-04-03T10:56:51.222Z,43.19
2023-04-03T11:00:15.800Z,41.98
2023-04-03T11:03:34.089Z,42.49
2023-04-03T11:06:46.790Z,43.16
2023-04-03T11:09:58.914Z,43.08
2023-04-03T11:13:27.614Z,42.49
2023-04-03T11:16:43.656Z,43.10
2023-04-03T11:20:01.368Z,44.08
2023-04-03T11:23:15.603Z,42.10
2023-04-03T11:26:22.470Z,41.10
2023-04-03T11:29:39.140Z,41.13
2023-04-03T11:33:00.500Z,40.94
2023-04-03T11:36:24.882Z,43.97
2023-04-03T11:39:34.723Z,41.86
2023-04-03T11:42:43.728Z,40.73
2023-04-03T11:46:04.062Z,39.60
2023-04-03T11:49:45.898Z,41.06
2023-04-03T11:52:57.854Z,39.51
2023-04-03T11:56:02.408Z,42.22
2023-04-03T11:59:19.319Z,40.81
2023-04-03T12:02:51.064Z,41.08
2023-04-03T12:06:05.578Z,41.45
2023-04-03T12:09:43.660Z,42.31
2023-04-03T12:12:58.720Z,42.38
2023-04-03T12:16:01.992Z,42.54
2023-04-03T12:19:41.153Z,42.96
2023-04-03T12:23:08.843Z,41.21
2023-04-03T12:26:23.182Z,43.76
2023-04-03T12:29:36.618Z,42.04
2023-04-03T12:33:05.783Z,41.49
2023-04-03T12:36:27.887Z,39.53
2023-04-03T12:40:10.387Z,40.27
2023-04-03T12:43:47.297Z,41.67
2023-04-03T12:46:53.082Z,42.49
2023-04-03T12:49:56.842Z,39.78
2023-04-03T12:52:59.796Z,41.46
2023-04-03T12:56:21.875Z,42.22
2023-04-03T12:59:27.468Z,41.46
2023-04-03T13:02:32.765Z,42.70
2023-04-03T13:05:37.222Z,41.30
2023-04-03T13:08:50.239Z,41.37
2023-04-03T13:12:10.834Z,40.05
2023-04-03T13:15:26.731Z,39.87
2023-04-03T13:18:29.821Z,40.46
2023-04-03T13:21:36.124Z,37.31
2023-04-03T13:24:40.551Z,39.73
2023-04-03T13:27:45.220Z,38.53
2023-04-03T13:31:20.602Z,38.93
2023-04-03T13:34:26.999Z,38.23
2023-04-03T13:37:32.671Z,36.51
2023-04-03T13:40:57.721Z,38.13
2023-04-03T13:44:22.408Z,36.62
2023-04-03T13:47:26.270Z,36.63
2023-04-03T13:50:30.399Z,35.81
2023-04-03T13:53:35.267Z,36.26
2023-04-03T13:56:42.912Z,34.83
2023-04-03T13:59:45.700Z,33.03
2023-04-03T14:02:49.501Z,33.18
2023-04-03T14:05:52.989Z,31.97
2023-04-03T14:08:55.810Z,31.69
2023-04-03T14:12:06.033Z,33.51
2023-04-03T14:15:17.241Z,31.24
2023-04-03T14:18:21.713Z,34.07
2023-04-03T14:21:24.557Z,34.87
2023-04-03T14:24:28.429Z,34.60
2023-04-03T14:27:38.950Z,38.90
2023-04-03T14:30:42.298Z,36.73
2023-04-03T14:33:47.924Z,37.76
2023-04-03T14:36:51.746Z,39.23
2023-04-03T14:39:55.128Z,38.85
2023-04-03T14:42:59.258Z,40.60
2023-04-03T14:46:02.579Z,41.35
2023-04-03T14:49:15.443Z,40.31
2023-04-03T14:52:31.371Z,39.29
2023-04-03T14:55:34.591Z,39.95
2023-04-03T14:58:38.110Z,39.82
2023-04-03T15:01:41.307Z,39.85
2023-04-03T15:04:44.229Z,41.71
2023-04-03T15:07:57.409Z,43.16
2023-04-03T15:11:00.029Z,39.98
2023-04-03T15:14:03.121Z,40.02
2023-04-03T15:17:06.884Z,40.46
2023-04-03T15:20:15.847Z,41.97
2023-04-03T15:23:18.731Z,41.93
2023-04-03T15:26:21.775Z,41.74
